Time;durP1;ratioP1;P1;durP2;ratioP2;P2;SDS_P1;SDS_P2;PMS_P1;PMS_P2;Temp;Humidity;BMP_temperature;BMP_pressure;BME280_temperature;BME280_humidity;BME280_pressure;Samples;Min_cycle;Max_cycle;Signal;HPM_P1;HPM_P2
2023/06/18 00:01:46;;;;;;;22.52;13.25;;;16.80;99.90;;;;;;4217008;28;20567;-84
2023/06/18 00:03:47;;;;;;;20.23;12.25;;;16.80;99.90;;;;;;4217066;28;20182;-84
2023/06/18 00:05:47;;;;;;;21.73;13.13;;;16.80;99.90;;;;;;4217211;28;20052;-84
2023/06/18 00:07:49;;;;;;;21.10;12.25;;;16.70;99.90;;;;;;4212460;28;20076;-84
2023/06/18 00:09:50;;;;;;;19.02;11.88;;;16.70;99.90;;;;;;4216076;28;20545;-84
2023/06/18 00:11:51;;;;;;;20.20;12.68;;;16.70;99.90;;;;;;4216895;28;20044;-84
2023/06/18 00:13:52;;;;;;;19.77;11.77;;;16.70;99.90;;;;;;4216031;28;20130;-84
2023/06/18 00:15:53;;;;;;;19.30;12.73;;;16.60;99.90;;;;;;4216919;28;20056;-84
2023/06/18 00:17:53;;;;;;;23.05;13.35;;;16.70;99.90;;;;;;4216247;28;20052;-84
2023/06/18 00:19:54;;;;;;;19.05;11.73;;;16.60;99.90;;;;;;4198405;28;20057;-84
2023/06/18 00:21:56;;;;;;;20.13;12.48;;;16.60;99.90;;;;;;4215528;28;20043;-84
2023/06/18 00:23:57;;;;;;;20.30;12.65;;;16.60;99.90;;;;;;4196624;28;20036;-84
2023/06/18 00:25:58;;;;;;;20.85;12.35;;;16.50;99.90;;;;;;4217037;28;20086;-84
2023/06/18 00:27:59;;;;;;;23.45;12.63;;;16.50;99.90;;;;;;4216509;28;20040;-84
2023/06/18 00:30:00;;;;;;;20.45;13.25;;;16.50;99.90;;;;;;4216458;28;20040;-84
2023/06/18 00:32:01;;;;;;;25.42;13.18;;;16.50;99.90;;;;;;4198491;28;20485;-84
2023/06/18 00:34:06;;;;;;;18.10;12.52;;;16.50;99.90;;;;;;4216305;28;20484;-85
2023/06/18 00:36:08;;;;;;;17.58;11.57;;;16.50;99.90;;;;;;4216719;28;20117;-85
2023/06/18 00:38:09;;;;;;;19.08;12.00;;;16.50;99.90;;;;;;4198899;28;20080;-84
2023/06/18 00:40:12;;;;;;;19.73;12.55;;;16.40;99.90;;;;;;4199197;28;20094;-85
2023/06/18 00:42:13;;;;;;;19.35;12.45;;;16.40;99.90;;;;;;4211131;28;20099;-85
2023/06/18 00:44:14;;;;;;;18.13;11.70;;;16.40;99.90;;;;;;4220850;28;20040;-84
2023/06/18 00:46:17;;;;;;;18.08;11.68;;;16.40;99.90;;;;;;4232787;28;20127;-85
2023/06/18 00:48:17;;;;;;;20.08;12.52;;;16.30;99.90;;;;;;4233658;28;20044;-84
2023/06/18 00:50:19;;;;;;;16.13;11.52;;;16.30;99.90;;;;;;4198277;28;20075;-85
2023/06/18 00:52:23;;;;;;;16.67;11.30;;;16.20;99.90;;;;;;4231214;28;20055;-84
2023/06/18 00:54:28;;;;;;;17.90;11.23;;;16.20;99.90;;;;;;4233094;28;20547;-84
2023/06/18 00:56:31;;;;;;;19.17;11.50;;;16.20;99.90;;;;;;4232926;28;20387;-84
2023/06/18 00:58:31;;;;;;;16.85;11.48;;;16.10;99.90;;;;;;4215065;28;20500;-84
2023/06/18 01:00:34;;;;;;;17.83;11.65;;;16.10;99.90;;;;;;4214184;28;20097;-84
2023/06/18 01:02:34;;;;;;;21.27;13.45;;;16.10;99.90;;;;;;4220252;28;20040;-84
2023/06/18 01:04:37;;;;;;;22.63;13.68;;;16.10;99.90;;;;;;4215867;28;20051;-84
2023/06/18 01:06:40;;;;;;;20.88;12.20;;;16.10;99.90;;;;;;4216006;28;20047;-84
2023/06/18 01:08:43;;;;;;;22.88;13.20;;;16.10;99.90;;;;;;4197939;28;20045;-84
2023/06/18 01:10:44;;;;;;;20.13;12.13;;;16.00;99.90;;;;;;4197504;28;20045;-84
2023/06/18 01:12:48;;;;;;;19.65;12.57;;;16.00;99.90;;;;;;4198097;28;20059;-84
2023/06/18 01:14:52;;;;;;;20.02;11.50;;;16.00;99.90;;;;;;4215232;28;20127;-84
2023/06/18 01:16:57;;;;;;;20.27;12.65;;;16.00;99.90;;;;;;4215912;28;20047;-84
2023/06/18 01:19:01;;;;;;;20.75;11.40;;;16.00;99.90;;;;;;4197618;28;20052;-84
2023/06/18 01:21:09;;;;;;;18.25;11.77;;;16.00;99.90;;;;;;4209965;28;20044;-84
2023/06/18 01:23:21;;;;;;;14.90;10.60;;;15.90;99.90;;;;;;4216096;28;20129;-84
2023/06/18 01:25:25;;;;;;;17.58;11.55;;;15.90;99.90;;;;;;4180342;28;20052;-84
2023/06/18 01:27:27;;;;;;;15.77;10.35;;;15.90;99.90;;;;;;4197729;28;20536;-84
2023/06/18 01:29:30;;;;;;;16.45;10.50;;;15.80;99.90;;;;;;4215915;28;20044;-84
2023/06/18 01:31:36;;;;;;;17.38;10.65;;;15.80;99.90;;;;;;4214914;28;20044;-84
2023/06/18 01:33:38;;;;;;;19.20;11.00;;;15.80;99.90;;;;;;4181218;28;20045;-84
2023/06/18 01:35:38;;;;;;;15.57;10.20;;;15.80;99.90;;;;;;4215862;28;20032;-84
2023/06/18 01:38:01;;;;;;;13.85;9.48;;;15.70;99.90;;;;;;4191096;28;20094;-84
2023/06/18 01:40:13;;;;;;;16.35;10.60;;;15.60;99.90;;;;;;4208542;28;20047;-84
2023/06/18 01:42:16;;;;;;;16.50;10.32;;;15.50;99.90;;;;;;4216062;28;20067;-84
2023/06/18 01:44:20;;;;;;;15.75;10.23;;;15.50;99.90;;;;;;4214915;28;20062;-84
2023/06/18 01:46:22;;;;;;;16.63;10.23;;;15.40;99.90;;;;;;4197952;28;20071;-84
2023/06/18 01:48:26;;;;;;;15.38;9.82;;;15.30;99.90;;;;;;4214867;28;20055;-83
2023/06/18 01:50:28;;;;;;;14.63;10.15;;;15.40;99.90;;;;;;4215428;28;20500;-84
2023/06/18 01:52:31;;;;;;;27.20;11.18;;;15.30;99.90;;;;;;4215754;28;20123;-84
2023/06/18 01:54:32;;;;;;;105.75;11.65;;;15.30;99.90;;;;;;4197353;28;20049;-84
2023/06/18 01:56:33;;;;;;;14.23;9.07;;;15.20;99.90;;;;;;4210079;28;20044;-83
2023/06/18 01:58:36;;;;;;;14.77;9.82;;;15.20;99.90;;;;;;4179732;28;20110;-84
2023/06/18 02:00:36;;;;;;;16.75;8.73;;;15.20;99.90;;;;;;4197893;28;20044;-84
2023/06/18 02:02:38;;;;;;;12.60;9.00;;;15.20;99.90;;;;;;4215178;28;20399;-84
2023/06/18 02:04:43;;;;;;;16.52;8.82;;;15.00;99.90;;;;;;4215491;28;20040;-84
2023/06/18 02:06:45;;;;;;;15.75;9.50;;;15.10;99.90;;;;;;4197713;28;20489;-84
2023/06/18 02:08:45;;;;;;;13.40;9.10;;;15.10;99.90;;;;;;4197337;28;20539;-84
2023/06/18 02:10:47;;;;;;;14.10;9.18;;;15.10;99.90;;;;;;4197687;28;20056;-84
2023/06/18 02:12:48;;;;;;;12.75;9.52;;;15.10;99.90;;;;;;4208765;28;20506;-84
2023/06/18 02:14:49;;;;;;;74.18;10.68;;;15.10;99.90;;;;;;4215048;28;20081;-84
2023/06/18 02:16:49;;;;;;;15.95;10.65;;;15.10;99.90;;;;;;4196807;28;20045;-84
2023/06/18 02:18:50;;;;;;;18.95;11.35;;;15.10;99.90;;;;;;4215453;28;20066;-84
2023/06/18 02:20:52;;;;;;;18.50;10.88;;;15.10;99.90;;;;;;4214995;28;20043;-84
2023/06/18 02:22:52;;;;;;;22.58;11.50;;;15.10;99.90;;;;;;4214783;28;20097;-84
2023/06/18 02:24:53;;;;;;;18.30;10.88;;;15.10;99.90;;;;;;4214891;28;20032;-84
2023/06/18 02:26:54;;;;;;;29.33;12.18;;;15.10;99.90;;;;;;4215409;28;20040;-84
2023/06/18 02:28:54;;;;;;;16.20;11.32;;;15.10;99.90;;;;;;4209073;28;20480;-84
2023/06/18 02:30:55;;;;;;;19.40;11.57;;;15.10;99.90;;;;;;4214558;28;20048;-84
2023/06/18 02:33:01;;;;;;;18.63;11.90;;;15.10;99.90;;;;;;4197188;28;20041;-84
2023/06/18 02:35:01;;;;;;;31.40;13.68;;;15.10;99.90;;;;;;4215024;28;20035;-84
2023/06/18 02:37:02;;;;;;;29.55;14.55;;;15.20;99.90;;;;;;4215011;28;20043;-84
2023/06/18 02:39:03;;;;;;;39.97;15.35;;;15.20;99.90;;;;;;4197168;28;20091;-84
2023/06/18 02:41:04;;;;;;;36.50;15.35;;;15.30;99.90;;;;;;4214772;28;20047;-83
2023/06/18 02:43:05;;;;;;;60.30;15.70;;;15.20;99.90;;;;;;4215197;28;20052;-84
2023/06/18 02:45:06;;;;;;;29.73;16.20;;;15.20;99.90;;;;;;4214887;28;20051;-84
2023/06/18 02:47:07;;;;;;;140.20;17.88;;;15.20;99.90;;;;;;4191262;28;20049;-89
2023/06/18 02:49:09;;;;;;;49.00;15.73;;;15.30;99.90;;;;;;4182076;28;20045;-88
2023/06/18 02:51:10;;;;;;;39.05;15.73;;;15.30;99.90;;;;;;4198932;28;20048;-87
2023/06/18 02:53:12;;;;;;;49.05;14.90;;;15.30;99.90;;;;;;4199082;28;20091;-88
2023/06/18 02:55:13;;;;;;;30.88;15.98;;;15.30;99.90;;;;;;4199211;28;20041;-88
2023/06/18 02:57:14;;;;;;;78.50;15.88;;;15.30;99.90;;;;;;4180022;28;20565;-88
2023/06/18 02:59:17;;;;;;;68.90;16.58;;;15.30;99.90;;;;;;4181569;28;20032;-88
2023/06/18 03:01:20;;;;;;;51.50;14.75;;;15.30;99.90;;;;;;4199107;28;20450;-88
2023/06/18 03:03:23;;;;;;;54.85;15.45;;;15.30;99.90;;;;;;4200199;28;20371;-88
2023/06/18 03:05:24;;;;;;;61.15;16.55;;;15.30;99.90;;;;;;4197967;28;20063;-88
2023/06/18 03:07:26;;;;;;;99.43;15.75;;;15.40;99.90;;;;;;4198376;28;20104;-88
2023/06/18 03:09:27;;;;;;;54.15;14.75;;;15.40;99.90;;;;;;4218199;28;20044;-88
2023/06/18 03:11:28;;;;;;;31.27;13.98;;;15.30;99.90;;;;;;4218309;28;20070;-88
2023/06/18 03:13:29;;;;;;;41.28;14.05;;;15.30;99.90;;;;;;4218802;28;20083;-88
2023/06/18 03:15:30;;;;;;;59.72;13.93;;;15.30;99.90;;;;;;4219194;28;20112;-88
2023/06/18 03:17:30;;;;;;;39.80;12.82;;;15.30;99.90;;;;;;4219160;28;20487;-87
2023/06/18 03:19:32;;;;;;;20.10;11.85;;;15.30;99.90;;;;;;4213234;28;20070;-88
2023/06/18 03:21:33;;;;;;;85.82;12.52;;;15.20;99.90;;;;;;4200235;28;20037;-88
2023/06/18 03:23:34;;;;;;;82.90;12.48;;;15.30;99.90;;;;;;4201525;28;20491;-87
2023/06/18 03:25:34;;;;;;;50.50;13.20;;;15.20;99.90;;;;;;4183284;28;20048;-87
2023/06/18 03:27:35;;;;;;;20.70;11.75;;;15.20;99.90;;;;;;4200563;28;20474;-88
2023/06/18 03:29:36;;;;;;;38.92;12.48;;;15.20;99.90;;;;;;4182951;28;20080;-87
2023/06/18 03:31:39;;;;;;;50.10;11.82;;;15.20;99.90;;;;;;4181819;28;20098;-88
2023/06/18 03:33:40;;;;;;;32.50;10.30;;;15.20;99.90;;;;;;4182926;28;20083;-88
2023/06/18 03:35:41;;;;;;;37.03;12.38;;;15.20;99.90;;;;;;4200761;28;20397;-87
2023/06/18 03:37:43;;;;;;;52.92;11.48;;;15.30;99.90;;;;;;4181866;28;20454;-87
2023/06/18 03:39:44;;;;;;;23.27;12.85;;;15.30;99.90;;;;;;4200647;28;20041;-87
2023/06/18 03:41:45;;;;;;;36.30;12.30;;;15.30;99.90;;;;;;4199824;28;20059;-87
2023/06/18 03:43:46;;;;;;;27.42;12.32;;;15.40;99.90;;;;;;4182667;28;20647;-87
2023/06/18 03:45:47;;;;;;;22.00;12.35;;;15.40;99.90;;;;;;4199736;28;20048;-87
2023/06/18 03:47:48;;;;;;;30.17;13.68;;;15.50;99.90;;;;;;4200655;28;20048;-88
2023/06/18 03:49:50;;;;;;;28.00;12.10;;;15.50;99.90;;;;;;4200713;28;20477;-88
2023/06/18 03:51:50;;;;;;;55.05;12.70;;;15.50;99.90;;;;;;4199468;28;20101;-87
2023/06/18 03:53:51;;;;;;;26.67;13.15;;;15.50;99.90;;;;;;4200699;28;20044;-87
2023/06/18 03:55:52;;;;;;;75.85;13.93;;;15.60;99.90;;;;;;4199931;28;20556;-89
2023/06/18 03:57:53;;;;;;;30.35;12.93;;;15.60;99.90;;;;;;4207233;28;20020;-88
2023/06/18 03:59:55;;;;;;;33.40;12.07;;;15.70;99.90;;;;;;4200975;28;20130;-86
2023/06/18 04:01:55;;;;;;;27.33;13.93;;;15.70;99.90;;;;;;4201609;28;20057;-88
2023/06/18 04:03:56;;;;;;;51.22;15.25;;;15.70;99.90;;;;;;4199834;28;20052;-87
2023/06/18 04:05:57;;;;;;;29.63;13.40;;;15.80;99.90;;;;;;4200803;28;20110;-88
2023/06/18 04:07:58;;;;;;;33.55;14.52;;;15.80;99.90;;;;;;4198993;28;20049;-87
2023/06/18 04:09:58;;;;;;;49.15;15.27;;;15.90;99.90;;;;;;4200575;28;20401;-88
2023/06/18 04:12:00;;;;;;;31.10;13.35;;;15.90;99.90;;;;;;4200469;28;20040;-88
2023/06/18 04:14:02;;;;;;;31.80;14.50;;;15.90;99.90;;;;;;4200189;28;20400;-87
2023/06/18 04:16:03;;;;;;;47.35;13.90;;;15.90;99.90;;;;;;4208879;28;20039;-88
2023/06/18 04:18:04;;;;;;;61.28;14.73;;;16.00;99.90;;;;;;4217211;28;20085;-88
2023/06/18 04:20:06;;;;;;;55.92;14.70;;;16.00;99.90;;;;;;4217979;28;20381;-88
2023/06/18 04:22:07;;;;;;;30.17;14.55;;;16.00;99.90;;;;;;4219411;28;20040;-88
2023/06/18 04:24:07;;;;;;;26.17;15.35;;;16.00;99.90;;;;;;4217174;28;20055;-88
2023/06/18 04:26:08;;;;;;;28.67;15.07;;;16.10;99.90;;;;;;4201577;28;20508;-88
2023/06/18 04:28:09;;;;;;;30.52;14.38;;;16.10;99.90;;;;;;4199517;28;20103;-88
2023/06/18 04:30:10;;;;;;;28.88;14.73;;;16.20;99.90;;;;;;4219071;28;20036;-87
2023/06/18 04:32:11;;;;;;;31.25;15.38;;;16.20;99.90;;;;;;4219774;28;20040;-88
2023/06/18 04:34:12;;;;;;;34.30;15.98;;;16.20;99.90;;;;;;4215432;28;20503;-87
2023/06/18 04:36:19;;;;;;;32.65;15.55;;;16.30;99.90;;;;;;4182264;28;20037;-89
2023/06/18 04:38:23;;;;;;;28.60;14.38;;;16.30;99.90;;;;;;4201439;28;20040;-88
2023/06/18 04:40:24;;;;;;;27.48;14.80;;;16.40;99.90;;;;;;4201461;28;20076;-87
2023/06/18 04:42:25;;;;;;;27.85;14.85;;;16.40;99.90;;;;;;4199451;28;20065;-90
2023/06/18 04:44:26;;;;;;;29.42;13.57;;;16.40;99.90;;;;;;4184680;28;20060;-88
2023/06/18 04:46:27;;;;;;;35.03;14.05;;;16.50;99.90;;;;;;4199957;28;20041;-88
2023/06/18 04:48:27;;;;;;;26.05;13.10;;;16.60;99.90;;;;;;4200612;28;20538;-88
2023/06/18 04:50:28;;;;;;;24.75;13.02;;;16.50;99.90;;;;;;4201107;28;20075;-88
2023/06/18 04:52:30;;;;;;;28.02;14.57;;;16.60;99.90;;;;;;4216309;28;20056;-87
2023/06/18 04:54:31;;;;;;;33.30;13.52;;;16.60;99.90;;;;;;4216236;28;20149;-87
2023/06/18 04:56:31;;;;;;;40.83;13.63;;;16.60;99.90;;;;;;4197626;28;20053;-88
2023/06/18 04:58:36;;;;;;;30.05;14.52;;;16.60;99.90;;;;;;4198724;28;20056;-88
2023/06/18 05:00:37;;;;;;;25.27;14.10;;;16.60;99.90;;;;;;4194166;28;20033;-88
2023/06/18 05:02:38;;;;;;;27.25;13.80;;;16.60;99.90;;;;;;4199780;28;20190;-88
2023/06/18 05:04:41;;;;;;;25.25;13.75;;;16.60;99.90;;;;;;4182793;28;20132;-89
2023/06/18 05:06:41;;;;;;;26.77;14.57;;;16.60;99.90;;;;;;4201284;28;20045;-89
2023/06/18 05:08:50;;;;;;;30.00;14.38;;;16.70;99.90;;;;;;4200852;28;20032;-89
2023/06/18 05:10:50;;;;;;;22.80;14.05;;;16.70;99.90;;;;;;4200252;28;20037;-89
2023/06/18 05:12:51;;;;;;;30.67;14.68;;;16.70;99.90;;;;;;4201813;28;20054;-88
2023/06/18 05:14:52;;;;;;;22.05;12.95;;;16.70;99.90;;;;;;4199858;28;20040;-88
2023/06/18 05:16:53;;;;;;;24.63;13.75;;;16.60;99.90;;;;;;4201771;28;20025;-88
2023/06/18 05:18:59;;;;;;;26.27;14.00;;;16.70;99.90;;;;;;4214231;28;20537;-88
2023/06/18 05:21:00;;;;;;;27.08;14.50;;;16.70;99.90;;;;;;4217475;28;20044;-89
2023/06/18 05:23:01;;;;;;;25.67;13.80;;;16.30;99.90;;;;;;4217134;28;20075;-88
2023/06/18 05:25:04;;;;;;;24.17;14.57;;;16.80;99.90;;;;;;4215981;28;20496;-88
2023/06/18 05:27:06;;;;;;;23.38;13.82;;;16.90;99.90;;;;;;4197234;28;20051;-88
2023/06/18 05:29:06;;;;;;;23.00;13.23;;;16.90;99.90;;;;;;4196711;28;20048;-87
2023/06/18 05:31:07;;;;;;;26.13;13.52;;;16.90;99.90;;;;;;4197642;28;20056;-88
2023/06/18 05:33:09;;;;;;;22.75;13.52;;;16.90;99.90;;;;;;4196533;28;20052;-88
2023/06/18 05:35:09;;;;;;;21.30;13.50;;;16.80;99.90;;;;;;4197926;28;20048;-88
2023/06/18 05:37:10;;;;;;;22.88;11.90;;;16.90;99.90;;;;;;4213414;28;20044;-88
2023/06/18 05:39:12;;;;;;;21.42;12.55;;;17.00;99.90;;;;;;4164219;28;20041;-88
2023/06/18 05:41:13;;;;;;;23.95;12.57;;;17.00;99.90;;;;;;4200205;28;20028;-87
2023/06/18 05:43:14;;;;;;;22.05;13.23;;;17.00;99.90;;;;;;4198851;28;20044;-87
2023/06/18 05:45:15;;;;;;;18.08;11.18;;;17.10;99.90;;;;;;4198110;28;20139;-88
2023/06/18 05:47:16;;;;;;;18.55;11.80;;;17.00;99.90;;;;;;4199565;28;20044;-88
2023/06/18 05:49:17;;;;;;;18.48;12.07;;;17.10;99.90;;;;;;4201033;28;20059;-88
2023/06/18 05:51:17;;;;;;;17.85;11.68;;;17.20;99.90;;;;;;4198372;28;20511;-87
2023/06/18 05:53:18;;;;;;;17.60;10.88;;;17.30;99.90;;;;;;4198805;28;20510;-88
2023/06/18 05:55:19;;;;;;;19.52;12.90;;;17.40;99.90;;;;;;4195912;28;20083;-88
2023/06/18 05:57:20;;;;;;;19.52;11.75;;;17.50;99.90;;;;;;4197398;28;20048;-88
2023/06/18 05:59:21;;;;;;;17.90;11.43;;;17.50;99.90;;;;;;4198692;28;20044;-88
2023/06/18 06:01:21;;;;;;;16.40;11.07;;;17.60;99.90;;;;;;4198529;28;20132;-88
2023/06/18 06:03:22;;;;;;;18.55;11.95;;;17.70;99.90;;;;;;4216182;28;20067;-88
2023/06/18 06:05:23;;;;;;;20.63;12.93;;;17.80;99.90;;;;;;4196389;28;20512;-88
2023/06/18 06:07:24;;;;;;;18.23;11.07;;;17.90;99.90;;;;;;4215477;28;20048;-88
2023/06/18 06:09:25;;;;;;;20.98;11.63;;;17.90;99.90;;;;;;4197230;28;20045;-88
2023/06/18 06:11:26;;;;;;;17.45;11.38;;;18.00;99.90;;;;;;4210402;28;20052;-88
2023/06/18 06:13:27;;;;;;;19.45;12.27;;;18.20;99.90;;;;;;4196738;28;20523;-88
2023/06/18 06:15:28;;;;;;;19.42;11.48;;;18.20;99.90;;;;;;4198041;28;20040;-88
2023/06/18 06:17:29;;;;;;;16.67;10.32;;;18.30;99.90;;;;;;4198608;28;20040;-88
2023/06/18 06:19:29;;;;;;;17.02;11.18;;;18.40;99.90;;;;;;4198916;28;20472;-88
2023/06/18 06:21:33;;;;;;;16.13;10.57;;;18.50;99.90;;;;;;4199485;28;20059;-89
2023/06/18 06:23:35;;;;;;;15.23;10.50;;;18.60;99.90;;;;;;4179856;28;20065;-88
2023/06/18 06:25:35;;;;;;;18.02;10.20;;;18.60;99.90;;;;;;4198109;28;20128;-89
2023/06/18 06:27:37;;;;;;;14.65;9.60;;;18.80;99.90;;;;;;4180804;28;20045;-89
2023/06/18 06:29:38;;;;;;;17.27;10.45;;;18.80;99.90;;;;;;4197967;28;20036;-88
2023/06/18 06:31:39;;;;;;;13.98;8.57;;;18.90;99.90;;;;;;4214126;28;20122;-90
2023/06/18 06:33:40;;;;;;;15.05;10.07;;;18.90;99.90;;;;;;4199286;28;20044;-90
2023/06/18 06:35:41;;;;;;;17.25;10.55;;;18.90;99.90;;;;;;4198736;28;20056;-90
2023/06/18 06:37:42;;;;;;;14.98;9.40;;;19.00;99.90;;;;;;4216249;28;20074;-90
2023/06/18 06:39:43;;;;;;;15.05;9.80;;;19.10;99.90;;;;;;4198637;28;20433;-90
2023/06/18 06:41:45;;;;;;;13.68;9.23;;;19.10;99.90;;;;;;4198366;28;20036;-91
2023/06/18 06:43:46;;;;;;;15.98;10.60;;;19.10;99.90;;;;;;4198917;28;20496;-91
2023/06/18 06:45:47;;;;;;;16.27;9.18;;;19.20;99.90;;;;;;4201883;28;20050;-91
2023/06/18 06:47:48;;;;;;;16.30;10.05;;;19.30;99.90;;;;;;4213802;28;20100;-89
2023/06/18 06:49:49;;;;;;;16.55;9.70;;;19.40;99.90;;;;;;4219397;28;20444;-88
2023/06/18 06:51:54;;;;;;;14.68;9.27;;;19.40;99.90;;;;;;4217813;28;20067;-88
2023/06/18 06:53:55;;;;;;;14.05;9.50;;;19.60;99.90;;;;;;4219416;28;20054;-90
2023/06/18 06:55:56;;;;;;;14.93;8.82;;;19.60;99.90;;;;;;4219690;28;20079;-89
2023/06/18 06:57:57;;;;;;;13.85;9.18;;;19.70;99.90;;;;;;4219707;28;20036;-89
2023/06/18 06:59:59;;;;;;;15.05;9.52;;;19.80;99.90;;;;;;4218486;28;20032;-89
2023/06/18 07:02:00;;;;;;;12.95;9.02;;;19.90;99.90;;;;;;4218782;28;20399;-89
2023/06/18 07:04:01;;;;;;;16.33;9.88;;;20.00;99.90;;;;;;4218897;28;20068;-90
2023/06/18 07:06:06;;;;;;;15.02;9.48;;;20.10;99.90;;;;;;4217298;28;20392;-88
2023/06/18 07:08:06;;;;;;;14.93;9.05;;;20.20;99.90;;;;;;4219270;28;20147;-88
2023/06/18 07:10:08;;;;;;;14.73;8.73;;;20.30;99.90;;;;;;4202293;28;20048;-88
2023/06/18 07:12:11;;;;;;;15.88;8.80;;;20.40;99.90;;;;;;4219182;28;20040;-88
2023/06/18 07:14:12;;;;;;;13.43;9.23;;;20.40;99.90;;;;;;4219432;28;20054;-86
2023/06/18 07:16:13;;;;;;;16.33;8.43;;;20.60;99.90;;;;;;4218976;28;20040;-86
2023/06/18 07:18:14;;;;;;;14.18;8.43;;;20.60;99.90;;;;;;4218656;28;20107;-87
2023/06/18 07:20:15;;;;;;;12.63;8.27;;;20.70;99.90;;;;;;4217903;28;20036;-86
2023/06/18 07:22:16;;;;;;;13.98;8.70;;;20.70;99.90;;;;;;4204148;28;20052;-89
2023/06/18 07:24:17;;;;;;;14.57;8.27;;;20.80;99.90;;;;;;4217353;28;20113;-84
2023/06/18 07:26:19;;;;;;;13.82;7.80;;;20.90;99.90;;;;;;4218111;28;20115;-87
2023/06/18 07:28:19;;;;;;;14.20;9.07;;;21.10;99.90;;;;;;4200726;28;20123;-86
2023/06/18 07:30:22;;;;;;;15.27;9.32;;;21.20;99.90;;;;;;4218131;28;20048;-87
2023/06/18 07:32:23;;;;;;;12.38;8.38;;;21.20;99.90;;;;;;4218809;28;20127;-87
2023/06/18 07:34:24;;;;;;;14.95;8.95;;;21.30;99.90;;;;;;4218510;28;20055;-87
2023/06/18 07:36:24;;;;;;;15.60;9.07;;;21.30;99.90;;;;;;4214555;28;20044;-87
2023/06/18 07:38:25;;;;;;;14.15;9.38;;;21.30;99.90;;;;;;4218200;28;20048;-88
2023/06/18 07:40:28;;;;;;;12.43;8.80;;;21.40;99.90;;;;;;4218514;28;20070;-87
2023/06/18 07:42:28;;;;;;;15.35;9.15;;;21.40;99.90;;;;;;4213643;28;20048;-88
2023/06/18 07:44:29;;;;;;;12.55;7.93;;;21.60;99.90;;;;;;4217749;28;20079;-87
2023/06/18 07:46:30;;;;;;;14.57;9.68;;;21.60;99.90;;;;;;4218901;28;20403;-87
2023/06/18 07:48:31;;;;;;;15.18;9.07;;;21.80;99.90;;;;;;4212333;28;20048;-87
2023/06/18 07:50:32;;;;;;;16.45;9.05;;;22.00;99.90;;;;;;4217262;28;20052;-87
2023/06/18 07:52:32;;;;;;;16.13;9.68;;;22.20;99.90;;;;;;4217503;28;20602;-88
2023/06/18 07:54:35;;;;;;;12.73;8.68;;;22.30;99.90;;;;;;4217901;28;20044;-87
2023/06/18 07:56:36;;;;;;;14.70;8.98;;;22.30;99.90;;;;;;4216712;28;20160;-87
2023/06/18 07:58:38;;;;;;;14.18;8.88;;;22.40;99.90;;;;;;4218458;28;20067;-87
2023/06/18 08:00:39;;;;;;;17.33;9.20;;;22.60;99.90;;;;;;4218354;28;20055;-87
2023/06/18 08:02:40;;;;;;;12.18;8.40;;;22.70;99.90;;;;;;4218185;28;20040;-87
2023/06/18 08:04:40;;;;;;;12.63;8.68;;;22.80;99.90;;;;;;4218408;28;20055;-84
2023/06/18 08:06:43;;;;;;;13.68;8.52;;;22.80;99.90;;;;;;4213735;28;20080;-82
2023/06/18 08:08:44;;;;;;;13.40;9.32;;;22.80;99.90;;;;;;4208737;28;20044;-83
2023/06/18 08:10:45;;;;;;;12.45;8.63;;;22.70;99.90;;;;;;4217142;28;20040;-82
2023/06/18 08:12:47;;;;;;;13.30;9.43;;;22.80;99.90;;;;;;4218081;28;20069;-82
2023/06/18 08:14:48;;;;;;;13.40;7.93;;;22.80;99.90;;;;;;4217693;28;20636;-84
2023/06/18 08:16:49;;;;;;;13.55;9.25;;;23.00;99.90;;;;;;4216633;28;20051;-84
2023/06/18 08:18:52;;;;;;;12.60;8.20;;;23.20;99.90;;;;;;4208789;28;20130;-83
2023/06/18 08:20:55;;;;;;;13.38;7.65;;;23.40;99.90;;;;;;4216959;28;20047;-83
2023/06/18 08:22:55;;;;;;;13.13;8.50;;;23.40;99.90;;;;;;4209107;28;20133;-83
2023/06/18 08:24:56;;;;;;;14.50;8.38;;;23.60;99.90;;;;;;4210022;28;20048;-83
2023/06/18 08:26:57;;;;;;;11.93;8.38;;;23.80;99.90;;;;;;4217079;28;20039;-83
2023/06/18 08:28:58;;;;;;;14.50;7.80;;;24.00;99.90;;;;;;4216580;28;20131;-86
2023/06/18 08:30:59;;;;;;;12.07;8.20;;;24.10;99.90;;;;;;4210966;28;20041;-85
2023/06/18 08:33:00;;;;;;;14.05;7.80;;;24.20;99.90;;;;;;4216966;28;20043;-83
2023/06/18 08:35:01;;;;;;;13.48;8.25;;;24.40;99.90;;;;;;4216152;28;20123;-84
2023/06/18 08:37:02;;;;;;;11.02;7.75;;;24.60;99.90;;;;;;4199862;28;20027;-84
2023/06/18 08:39:04;;;;;;;12.23;8.18;;;24.60;99.90;;;;;;4200175;28;20546;-84
2023/06/18 08:41:05;;;;;;;11.65;7.55;;;24.80;99.90;;;;;;4200796;28;20534;-84
2023/06/18 08:43:12;;;;;;;13.07;8.00;;;24.90;99.90;;;;;;4204693;28;20040;-85
2023/06/18 08:45:14;;;;;;;13.02;7.93;;;25.10;99.90;;;;;;4215873;28;20066;-84
2023/06/18 08:47:16;;;;;;;11.02;6.65;;;25.20;99.90;;;;;;4217252;28;20092;-84
2023/06/18 08:49:20;;;;;;;12.27;7.18;;;25.50;99.90;;;;;;4216121;28;20504;-84
2023/06/18 08:51:23;;;;;;;11.82;6.10;;;25.60;99.90;;;;;;4215579;28;20074;-84
2023/06/18 08:53:45;;;;;;;12.15;7.55;;;25.70;99.90;;;;;;4204011;28;20037;-84
2023/06/18 08:55:48;;;;;;;11.35;7.00;;;26.00;99.90;;;;;;4215087;28;20484;-83
2023/06/18 08:57:58;;;;;;;10.68;7.00;;;26.10;99.90;;;;;;4219406;28;20052;-84
2023/06/18 09:00:04;;;;;;;11.80;7.32;;;26.20;99.90;;;;;;4218781;28;20036;-85
2023/06/18 09:02:05;;;;;;;14.05;6.93;;;26.50;99.90;;;;;;4216647;28;20046;-85
2023/06/18 09:04:07;;;;;;;9.80;7.45;;;26.70;99.90;;;;;;4217014;28;20036;-84
2023/06/18 09:06:08;;;;;;;11.30;6.85;;;26.80;99.90;;;;;;4213554;28;20044;-82
2023/06/18 09:08:08;;;;;;;9.68;6.32;;;26.80;99.90;;;;;;4213007;28;20048;-84
2023/06/18 09:10:10;;;;;;;11.07;6.78;;;26.90;99.90;;;;;;4216407;28;20074;-84
2023/06/18 09:12:10;;;;;;;13.38;7.38;;;26.90;99.90;;;;;;4217453;28;20484;-84
2023/06/18 09:14:11;;;;;;;12.52;7.13;;;26.90;99.90;;;;;;4210301;28;20090;-84
2023/06/18 09:16:12;;;;;;;10.13;6.53;;;26.90;99.90;;;;;;4215739;28;20047;-84
2023/06/18 09:18:13;;;;;;;13.38;7.45;;;27.00;99.90;;;;;;4216491;28;20530;-84
2023/06/18 09:20:18;;;;;;;11.45;6.53;;;27.10;99.90;;;;;;4210619;28;20040;-84
2023/06/18 09:22:20;;;;;;;10.77;7.20;;;27.40;99.90;;;;;;4202995;28;20052;-84
2023/06/18 09:24:23;;;;;;;12.57;6.65;;;27.50;99.90;;;;;;4202172;28;20079;-84
2023/06/18 09:26:24;;;;;;;10.70;6.68;;;27.60;99.90;;;;;;4200216;28;20040;-85
2023/06/18 09:28:26;;;;;;;12.00;5.82;;;27.70;99.90;;;;;;4199311;28;20569;-85
2023/06/18 09:30:27;;;;;;;9.57;6.60;;;27.90;99.90;;;;;;4198413;28;20416;-85
2023/06/18 09:32:28;;;;;;;11.65;7.55;;;28.20;99.90;;;;;;4199584;28;20048;-85
2023/06/18 09:34:31;;;;;;;8.80;6.47;;;28.40;99.90;;;;;;4198133;28;20492;-85
2023/06/18 09:36:35;;;;;;;12.00;6.05;;;28.60;99.70;;;;;;4199241;28;20040;-85
2023/06/18 09:38:38;;;;;;;13.68;7.00;;;28.80;99.40;;;;;;4198434;28;20064;-85
2023/06/18 09:40:41;;;;;;;11.40;6.57;;;29.00;99.10;;;;;;4193433;28;20047;-85
2023/06/18 09:42:46;;;;;;;13.70;5.93;;;28.80;98.40;;;;;;4190039;28;20049;-86
2023/06/18 09:44:47;;;;;;;9.57;6.03;;;29.00;98.30;;;;;;4181914;28;20056;-85
2023/06/18 09:46:50;;;;;;;9.40;6.40;;;29.20;98.20;;;;;;4183267;28;20049;-85
2023/06/18 09:48:52;;;;;;;8.00;5.43;;;29.30;97.60;;;;;;4181573;28;20374;-85
2023/06/18 09:50:55;;;;;;;13.45;6.90;;;29.60;97.10;;;;;;4182794;28;20094;-85
2023/06/18 09:52:57;;;;;;;9.65;5.75;;;29.80;97.10;;;;;;4181272;28;20049;-84
2023/06/18 09:54:59;;;;;;;10.95;6.97;;;29.70;95.60;;;;;;4196677;28;20399;-85
2023/06/18 09:57:02;;;;;;;9.20;5.30;;;29.60;95.40;;;;;;4199200;28;20063;-85
2023/06/18 09:59:04;;;;;;;8.27;5.15;;;29.40;95.70;;;;;;4196357;28;20396;-84
2023/06/18 10:01:05;;;;;;;9.20;5.13;;;29.50;95.30;;;;;;4193210;28;20052;-85
2023/06/18 10:03:07;;;;;;;7.28;5.10;;;29.70;95.40;;;;;;4181358;28;20041;-85
2023/06/18 10:05:08;;;;;;;11.77;5.85;;;29.90;94.70;;;;;;4182073;28;20052;-85
2023/06/18 10:07:15;;;;;;;7.85;5.15;;;30.00;94.10;;;;;;4181859;28;20048;-85
2023/06/18 10:09:18;;;;;;;6.53;4.75;;;30.10;93.50;;;;;;4182064;28;20551;-84
2023/06/18 10:11:21;;;;;;;8.00;5.07;;;30.00;93.20;;;;;;4182925;28;20253;-84
2023/06/18 10:13:22;;;;;;;8.05;4.80;;;30.20;92.60;;;;;;4181305;28;20116;-84
2023/06/18 10:15:25;;;;;;;9.18;5.05;;;30.40;92.40;;;;;;4183032;28;20096;-84
2023/06/18 10:17:34;;;;;;;7.10;4.70;;;30.50;92.20;;;;;;4182643;28;20550;-85
2023/06/18 10:19:55;;;;;;;6.25;4.25;;;30.70;91.40;;;;;;4197506;28;20044;-85
2023/06/18 10:22:03;;;;;;;9.98;5.25;;;30.80;90.80;;;;;;4199973;28;20077;-84